Time;durP1;ratioP1;P1;durP2;ratioP2;P2;SDS_P1;SDS_P2;PMS_P1;PMS_P2;Temp;Humidity;BMP_temperature;BMP_pressure;BME280_temperature;BME280_humidity;BME280_pressure;Samples;Min_cycle;Max_cycle;Signal;HPM_P1;HPM_P2
2021/10/16 00:00:49;;;;;;;17.03;9.53;;;;;;;;;;2096937;28;20187;-62
2021/10/16 00:01:49;;;;;;;15.10;9.30;;;;;;;;;;2091550;28;20191;-56
2021/10/16 00:02:49;;;;;;;16.83;8.80;;;;;;;;;;2096753;28;20175;-59
2021/10/16 00:03:50;;;;;;;22.10;9.60;;;;;;;;;;2091170;28;20190;-56
2021/10/16 00:04:50;;;;;;;20.43;9.90;;;;;;;;;;2088846;28;20174;-53
2021/10/16 00:05:50;;;;;;;19.63;9.60;;;;;;;;;;2079218;28;20240;-57
2021/10/16 00:06:50;;;;;;;17.30;9.33;;;;;;;;;;2081207;28;20224;-54
2021/10/16 00:07:51;;;;;;;19.40;9.37;;;;;;;;;;2088245;28;20258;-55
2021/10/16 00:08:51;;;;;;;21.07;10.20;;;;;;;;;;2097256;28;20167;-58
2021/10/16 00:09:51;;;;;;;21.70;8.97;;;;;;;;;;2096877;28;21211;-61
2021/10/16 00:10:51;;;;;;;16.00;8.90;;;;;;;;;;2097333;28;20182;-60
2021/10/16 00:11:52;;;;;;;18.00;9.70;;;;;;;;;;2097049;28;20252;-59
2021/10/16 00:12:52;;;;;;;17.40;9.67;;;;;;;;;;2096343;28;20202;-57
2021/10/16 00:13:52;;;;;;;15.23;9.00;;;;;;;;;;2089047;28;20175;-58
2021/10/16 00:14:52;;;;;;;13.73;8.20;;;;;;;;;;2088124;28;20253;-57
2021/10/16 00:15:53;;;;;;;22.73;10.17;;;;;;;;;;2088014;28;20838;-58
2021/10/16 00:16:53;;;;;;;17.57;9.60;;;;;;;;;;2087774;28;20274;-55
2021/10/16 00:17:53;;;;;;;15.83;9.17;;;;;;;;;;2093047;28;20263;-56
2021/10/16 00:18:53;;;;;;;17.37;10.50;;;;;;;;;;2086648;28;20179;-60
2021/10/16 00:19:54;;;;;;;16.10;9.70;;;;;;;;;;2085332;28;20188;-62
2021/10/16 00:20:56;;;;;;;11.47;9.00;;;;;;;;;;2097870;28;20171;-59
2021/10/16 00:21:56;;;;;;;22.80;10.20;;;;;;;;;;2094537;28;20180;-65
2021/10/16 00:22:56;;;;;;;19.57;10.50;;;;;;;;;;2097558;28;20225;-58
2021/10/16 00:23:56;;;;;;;17.40;9.70;;;;;;;;;;2097096;28;20631;-61
2021/10/16 00:24:57;;;;;;;16.80;10.00;;;;;;;;;;2096879;28;20175;-61
2021/10/16 00:25:57;;;;;;;15.40;8.80;;;;;;;;;;2093162;28;20186;-54
2021/10/16 00:26:57;;;;;;;16.63;9.53;;;;;;;;;;2097545;28;20218;-53
2021/10/16 00:27:57;;;;;;;22.77;9.17;;;;;;;;;;2088224;28;20863;-55
2021/10/16 00:28:57;;;;;;;18.27;9.70;;;;;;;;;;2075395;28;20216;-53
2021/10/16 00:29:58;;;;;;;18.80;9.57;;;;;;;;;;2084694;28;20159;-54
2021/10/16 00:30:58;;;;;;;19.77;9.83;;;;;;;;;;2091655;28;20215;-61
2021/10/16 00:31:59;;;;;;;15.90;9.80;;;;;;;;;;2097355;28;20179;-60
2021/10/16 00:32:59;;;;;;;18.43;9.53;;;;;;;;;;2087835;28;20222;-54
2021/10/16 00:33:59;;;;;;;15.23;9.63;;;;;;;;;;2080247;28;20616;-53
2021/10/16 00:35:00;;;;;;;17.73;9.60;;;;;;;;;;2087787;28;20195;-55
2021/10/16 00:36:00;;;;;;;14.93;7.93;;;;;;;;;;2088200;28;20194;-59
2021/10/16 00:37:00;;;;;;;16.47;8.53;;;;;;;;;;2088428;28;20203;-55
2021/10/16 00:38:01;;;;;;;26.33;10.77;;;;;;;;;;2087299;28;20183;-55
2021/10/16 00:39:01;;;;;;;19.00;8.93;;;;;;;;;;2079892;28;20179;-62
2021/10/16 00:40:01;;;;;;;15.27;8.70;;;;;;;;;;2087900;28;20179;-59
2021/10/16 00:41:02;;;;;;;18.63;8.83;;;;;;;;;;2096818;28;20532;-58
2021/10/16 00:42:03;;;;;;;16.37;8.90;;;;;;;;;;2096381;28;20177;-54
2021/10/16 00:43:04;;;;;;;13.87;8.40;;;;;;;;;;2085858;28;20211;-53
2021/10/16 00:44:13;;;;;;;22.17;9.07;;;;;;;;;;2087932;28;20628;-54
2021/10/16 00:45:14;;;;;;;16.07;9.33;;;;;;;;;;2092097;28;20182;-55
2021/10/16 00:46:14;;;;;;;18.00;9.70;;;;;;;;;;2096494;28;20179;-54
2021/10/16 00:47:14;;;;;;;16.17;10.53;;;;;;;;;;2096052;28;20651;-56
2021/10/16 00:48:15;;;;;;;18.20;10.87;;;;;;;;;;2096818;28;20249;-56
2021/10/16 00:49:15;;;;;;;20.40;10.27;;;;;;;;;;2095262;28;20175;-58
2021/10/16 00:50:16;;;;;;;19.60;10.67;;;;;;;;;;2087604;28;20172;-56
2021/10/16 00:51:17;;;;;;;17.33;10.47;;;;;;;;;;2088459;28;20207;-53
2021/10/16 00:52:17;;;;;;;15.47;9.93;;;;;;;;;;2088244;28;20163;-54
2021/10/16 00:53:18;;;;;;;17.40;10.30;;;;;;;;;;2080265;28;20587;-60
2021/10/16 00:54:19;;;;;;;21.37;10.67;;;;;;;;;;2087946;28;20171;-56
2021/10/16 00:55:20;;;;;;;17.63;10.50;;;;;;;;;;2097035;28;20171;-56
2021/10/16 00:56:20;;;;;;;21.70;9.33;;;;;;;;;;2088142;28;20258;-56
2021/10/16 00:57:21;;;;;;;15.47;10.20;;;;;;;;;;2077203;28;20744;-56
2021/10/16 00:58:22;;;;;;;15.60;10.00;;;;;;;;;;2087759;28;20175;-60
2021/10/16 00:59:23;;;;;;;14.70;9.07;;;;;;;;;;2094877;28;20672;-54
2021/10/16 01:00:23;;;;;;;21.07;10.20;;;;;;;;;;2087534;28;20331;-54
2021/10/16 01:01:24;;;;;;;17.97;10.83;;;;;;;;;;2081370;28;20251;-57
2021/10/16 01:02:25;;;;;;;23.43;12.10;;;;;;;;;;2085422;28;20172;-60
2021/10/16 01:03:25;;;;;;;21.27;15.60;;;;;;;;;;2090542;28;20211;-58
2021/10/16 01:04:27;;;;;;;18.90;10.83;;;;;;;;;;2087922;28;20172;-57
2021/10/16 01:05:35;;;;;;;16.77;10.30;;;;;;;;;;2087270;28;20175;-58
2021/10/16 01:06:36;;;;;;;21.30;10.53;;;;;;;;;;2096996;28;20206;-56
2021/10/16 01:07:37;;;;;;;17.83;11.40;;;;;;;;;;2081761;28;20173;-55
2021/10/16 01:08:38;;;;;;;20.87;11.30;;;;;;;;;;2080332;28;20176;-59
2021/10/16 01:09:41;;;;;;;27.47;10.93;;;;;;;;;;2088163;28;20167;-55
2021/10/16 01:10:41;;;;;;;13.43;8.53;;;;;;;;;;2086981;28;20198;-55
2021/10/16 01:11:54;;;;;;;17.13;9.27;;;;;;;;;;2079489;28;20179;-56
2021/10/16 01:12:55;;;;;;;20.53;10.47;;;;;;;;;;2081081;28;20180;-56
2021/10/16 01:13:55;;;;;;;16.07;9.00;;;;;;;;;;2079648;28;20191;-57
2021/10/16 01:14:57;;;;;;;19.20;10.33;;;;;;;;;;2079484;28;20196;-53
2021/10/16 01:15:57;;;;;;;16.10;9.00;;;;;;;;;;2088901;28;20190;-58
2021/10/16 01:16:58;;;;;;;15.20;8.53;;;;;;;;;;2095758;28;20215;-57
2021/10/16 01:17:59;;;;;;;12.73;8.37;;;;;;;;;;2088050;28;20244;-54
2021/10/16 01:18:59;;;;;;;12.03;8.77;;;;;;;;;;2079563;28;20175;-53
2021/10/16 01:20:05;;;;;;;12.60;8.77;;;;;;;;;;2088006;28;20322;-54
2021/10/16 01:21:08;;;;;;;15.40;8.77;;;;;;;;;;2079952;28;20192;-55
2021/10/16 01:22:08;;;;;;;16.23;8.60;;;;;;;;;;2088196;28;20551;-55
2021/10/16 01:23:08;;;;;;;13.43;7.83;;;;;;;;;;2087451;28;20206;-53
2021/10/16 01:24:10;;;;;;;17.00;8.13;;;;;;;;;;2088146;28;20273;-56
2021/10/16 01:25:14;;;;;;;14.97;8.47;;;;;;;;;;2095874;28;20244;-54
2021/10/16 01:26:14;;;;;;;12.03;8.90;;;;;;;;;;2096795;28;20179;-57
2021/10/16 01:27:15;;;;;;;14.17;8.00;;;;;;;;;;2095805;28;20203;-56
2021/10/16 01:28:16;;;;;;;14.77;8.27;;;;;;;;;;2087447;28;20171;-54
2021/10/16 01:29:19;;;;;;;15.87;8.73;;;;;;;;;;2079593;28;20219;-60
2021/10/16 01:30:21;;;;;;;13.63;8.70;;;;;;;;;;2079950;28;20236;-52
2021/10/16 01:31:23;;;;;;;19.73;9.20;;;;;;;;;;2084146;28;20269;-52
2021/10/16 01:32:24;;;;;;;16.30;8.83;;;;;;;;;;2086958;28;20638;-52
2021/10/16 01:33:25;;;;;;;14.87;8.13;;;;;;;;;;2085155;28;20266;-57
2021/10/16 01:34:25;;;;;;;18.57;9.60;;;;;;;;;;2088236;28;20176;-56
2021/10/16 01:35:26;;;;;;;16.33;9.40;;;;;;;;;;2088523;28;20680;-52
2021/10/16 01:36:37;;;;;;;16.90;10.43;;;;;;;;;;2079669;28;20173;-52
2021/10/16 01:37:39;;;;;;;15.43;10.03;;;;;;;;;;2080344;28;20235;-53
2021/10/16 01:38:39;;;;;;;14.30;9.40;;;;;;;;;;2087103;28;20258;-53
2021/10/16 01:39:40;;;;;;;13.20;9.07;;;;;;;;;;2086834;28;20188;-52
2021/10/16 01:40:41;;;;;;;17.00;9.93;;;;;;;;;;2073803;28;20180;-53
2021/10/16 01:41:42;;;;;;;24.90;10.80;;;;;;;;;;2087459;28;20186;-53
2021/10/16 01:42:45;;;;;;;18.73;10.07;;;;;;;;;;2073238;28;20615;-54
2021/10/16 01:43:50;;;;;;;16.53;10.27;;;;;;;;;;2087435;28;20172;-59
2021/10/16 01:44:50;;;;;;;20.80;10.67;;;;;;;;;;2079122;28;20207;-53
2021/10/16 01:45:52;;;;;;;15.37;9.67;;;;;;;;;;2079563;28;20200;-56
2021/10/16 01:46:53;;;;;;;17.47;9.53;;;;;;;;;;2079799;28;20196;-60
2021/10/16 01:47:58;;;;;;;18.87;9.70;;;;;;;;;;2078123;28;20548;-54
2021/10/16 01:49:08;;;;;;;20.60;9.53;;;;;;;;;;2083538;28;20160;-54
2021/10/16 01:50:09;;;;;;;20.40;9.63;;;;;;;;;;2085674;28;20223;-54
2021/10/16 01:51:16;;;;;;;18.20;10.93;;;;;;;;;;2078529;28;20192;-61
2021/10/16 01:52:16;;;;;;;19.87;11.20;;;;;;;;;;2084277;28;20172;-55
2021/10/16 01:53:19;;;;;;;22.50;12.50;;;;;;;;;;2077934;28;20184;-57
2021/10/16 01:54:28;;;;;;;19.07;11.30;;;;;;;;;;2080085;28;20183;-57
2021/10/16 01:55:30;;;;;;;23.53;11.17;;;;;;;;;;2075541;28;20632;-56
2021/10/16 01:56:30;;;;;;;19.50;10.90;;;;;;;;;;2087650;28;20175;-57
2021/10/16 01:57:30;;;;;;;17.17;11.73;;;;;;;;;;2096073;28;20183;-54
2021/10/16 01:58:35;;;;;;;19.17;10.57;;;;;;;;;;2088213;28;20184;-55
2021/10/16 01:59:46;;;;;;;17.23;10.40;;;;;;;;;;2082500;28;20174;-59
2021/10/16 02:01:14;;;;;;;19.57;10.73;;;;;;;;;;2089241;28;20192;-60
2021/10/16 02:02:17;;;;;;;20.07;11.00;;;;;;;;;;2080761;28;20537;-57
2021/10/16 02:03:26;;;;;;;14.77;11.10;;;;;;;;;;2078716;28;20201;-55
2021/10/16 02:04:35;;;;;;;15.27;10.43;;;;;;;;;;2090860;28;20171;-58
2021/10/16 02:05:40;;;;;;;14.67;10.63;;;;;;;;;;2089630;28;20313;-56
2021/10/16 02:06:51;;;;;;;15.87;9.97;;;;;;;;;;2075997;28;20283;-56
2021/10/16 02:07:52;;;;;;;13.80;9.77;;;;;;;;;;2081046;28;20649;-56
2021/10/16 02:08:53;;;;;;;18.43;9.63;;;;;;;;;;2088929;28;20240;-56
2021/10/16 02:09:53;;;;;;;15.60;10.00;;;;;;;;;;2089699;28;20178;-58
2021/10/16 02:10:53;;;;;;;17.80;10.77;;;;;;;;;;2088326;28;20171;-60
2021/10/16 02:11:54;;;;;;;23.73;9.87;;;;;;;;;;2085064;28;20168;-55
2021/10/16 02:12:54;;;;;;;17.17;9.53;;;;;;;;;;2088940;28;20168;-62
2021/10/16 02:13:54;;;;;;;15.70;9.40;;;;;;;;;;2094234;28;20172;-68
2021/10/16 02:14:55;;;;;;;17.60;9.80;;;;;;;;;;2099188;28;20235;-65
2021/10/16 02:15:56;;;;;;;13.50;9.97;;;;;;;;;;2083735;28;20172;-54
2021/10/16 02:17:03;;;;;;;17.90;10.50;;;;;;;;;;2089599;28;20192;-58
2021/10/16 02:18:04;;;;;;;23.10;10.47;;;;;;;;;;2080024;28;20698;-55
2021/10/16 02:19:05;;;;;;;13.60;9.20;;;;;;;;;;2081222;28;20199;-57
2021/10/16 02:20:08;;;;;;;20.10;9.57;;;;;;;;;;2081339;28;20639;-55
2021/10/16 02:21:09;;;;;;;17.73;8.73;;;;;;;;;;2088806;28;20191;-57
2021/10/16 02:22:11;;;;;;;13.27;8.73;;;;;;;;;;2085155;28;20219;-66
2021/10/16 02:23:12;;;;;;;15.40;8.80;;;;;;;;;;2087241;28;20201;-65
2021/10/16 02:24:13;;;;;;;16.40;10.07;;;;;;;;;;2083265;28;20184;-64
2021/10/16 02:25:16;;;;;;;17.50;8.47;;;;;;;;;;2090707;28;20253;-62
2021/10/16 02:26:16;;;;;;;17.47;9.50;;;;;;;;;;2086768;28;20199;-65
2021/10/16 02:27:20;;;;;;;16.67;9.13;;;;;;;;;;2100284;28;20258;-63
2021/10/16 02:28:20;;;;;;;15.67;9.10;;;;;;;;;;2099316;28;20172;-58
2021/10/16 02:29:32;;;;;;;12.47;9.47;;;;;;;;;;2092526;28;20203;-62
2021/10/16 02:30:39;;;;;;;18.37;9.00;;;;;;;;;;2099089;28;20687;-63
2021/10/16 02:31:39;;;;;;;13.83;8.97;;;;;;;;;;2091148;28;20176;-57
2021/10/16 02:32:43;;;;;;;13.87;8.43;;;;;;;;;;2090978;28;20236;-58
2021/10/16 02:33:44;;;;;;;12.43;9.13;;;;;;;;;;2090562;28;20172;-64
2021/10/16 02:34:44;;;;;;;16.53;9.80;;;;;;;;;;2089945;28;20657;-58
2021/10/16 02:35:51;;;;;;;18.13;9.40;;;;;;;;;;2090936;28;20241;-58
2021/10/16 02:36:52;;;;;;;18.57;8.53;;;;;;;;;;2089619;28;20232;-55
2021/10/16 02:37:52;;;;;;;14.13;8.83;;;;;;;;;;2094976;28;20171;-62
2021/10/16 02:38:52;;;;;;;14.07;9.20;;;;;;;;;;2082797;28;20667;-59
2021/10/16 02:39:53;;;;;;;13.30;8.60;;;;;;;;;;2073183;28;20180;-54
2021/10/16 02:40:54;;;;;;;15.67;9.77;;;;;;;;;;2081143;28;20648;-61
2021/10/16 02:41:58;;;;;;;11.17;8.80;;;;;;;;;;2081696;28;20259;-56
2021/10/16 02:43:01;;;;;;;12.33;9.20;;;;;;;;;;2080846;28;20267;-62
2021/10/16 02:44:02;;;;;;;17.00;9.53;;;;;;;;;;2089049;28;20180;-59
2021/10/16 02:45:06;;;;;;;14.77;9.83;;;;;;;;;;2088728;28;22281;-55
2021/10/16 02:46:08;;;;;;;18.07;9.80;;;;;;;;;;2081342;28;20204;-59
2021/10/16 02:47:08;;;;;;;15.43;9.73;;;;;;;;;;2078621;28;20189;-56
2021/10/16 02:48:08;;;;;;;15.20;9.20;;;;;;;;;;2082720;28;20624;-57
2021/10/16 02:49:09;;;;;;;15.67;9.53;;;;;;;;;;2089352;28;20179;-58
2021/10/16 02:50:09;;;;;;;18.33;10.20;;;;;;;;;;2080362;28;20683;-55
2021/10/16 02:51:10;;;;;;;13.97;9.40;;;;;;;;;;2089472;28;20213;-56
2021/10/16 02:52:11;;;;;;;11.70;9.07;;;;;;;;;;2089557;28;20255;-56
2021/10/16 02:53:12;;;;;;;12.40;9.17;;;;;;;;;;2081570;28;20180;-53
2021/10/16 02:54:13;;;;;;;15.40;9.63;;;;;;;;;;2080329;28;20185;-53
2021/10/16 02:55:16;;;;;;;14.13;9.57;;;;;;;;;;2080835;28;20211;-59
2021/10/16 02:56:27;;;;;;;15.47;9.00;;;;;;;;;;2088967;28;20171;-62
2021/10/16 02:57:30;;;;;;;19.57;11.10;;;;;;;;;;2089308;28;20168;-56
2021/10/16 02:58:30;;;;;;;21.37;15.63;;;;;;;;;;2089704;28;20187;-56
2021/10/16 02:59:30;;;;;;;23.83;16.07;;;;;;;;;;2088755;28;20167;-61
2021/10/16 03:00:33;;;;;;;20.80;11.77;;;;;;;;;;2088557;28;20187;-61
2021/10/16 03:01:37;;;;;;;25.00;16.53;;;;;;;;;;2075234;28;20653;-58
2021/10/16 03:02:37;;;;;;;24.80;14.80;;;;;;;;;;2080620;28;20180;-57
2021/10/16 03:03:38;;;;;;;25.83;13.73;;;;;;;;;;2089567;28;20286;-53
2021/10/16 03:04:40;;;;;;;22.37;11.80;;;;;;;;;;2089416;28;20258;-58
2021/10/16 03:05:41;;;;;;;14.80;9.40;;;;;;;;;;2089156;28;20172;-57
2021/10/16 03:06:49;;;;;;;20.30;9.50;;;;;;;;;;2081461;28;20203;-55
2021/10/16 03:07:49;;;;;;;14.63;9.40;;;;;;;;;;2088551;28;20856;-55
2021/10/16 03:08:49;;;;;;;12.80;8.53;;;;;;;;;;2081593;28;20207;-57
2021/10/16 03:09:51;;;;;;;16.47;9.30;;;;;;;;;;2079957;28;20238;-54
2021/10/16 03:10:52;;;;;;;13.63;8.43;;;;;;;;;;2080305;28;20164;-55
2021/10/16 03:12:02;;;;;;;12.00;8.83;;;;;;;;;;2073516;28;20200;-57
2021/10/16 03:13:07;;;;;;;11.83;8.67;;;;;;;;;;2081029;28;20563;-56
2021/10/16 03:14:07;;;;;;;17.83;8.47;;;;;;;;;;2083264;28;20338;-56
2021/10/16 03:15:09;;;;;;;12.80;8.43;;;;;;;;;;2080047;28;20693;-54
2021/10/16 03:16:11;;;;;;;20.67;9.60;;;;;;;;;;2080240;28;20172;-52
2021/10/16 03:17:15;;;;;;;15.17;8.87;;;;;;;;;;2081270;28;20281;-61
2021/10/16 03:18:15;;;;;;;24.73;10.03;;;;;;;;;;2088436;28;20255;-56
2021/10/16 03:19:16;;;;;;;17.47;9.70;;;;;;;;;;2088593;28;20195;-54
2021/10/16 03:20:24;;;;;;;18.60;10.03;;;;;;;;;;2081046;28;20173;-52
2021/10/16 03:21:25;;;;;;;19.37;10.10;;;;;;;;;;2078110;28;20172;-62
2021/10/16 03:22:25;;;;;;;19.23;10.77;;;;;;;;;;2077410;28;20175;-61
2021/10/16 03:23:25;;;;;;;19.77;11.77;;;;;;;;;;2088507;28;20222;-59
2021/10/16 03:24:26;;;;;;;15.23;10.67;;;;;;;;;;2088530;28;20163;-54
2021/10/16 03:25:27;;;;;;;19.70;11.53;;;;;;;;;;2080756;28;20204;-57
2021/10/16 03:26:27;;;;;;;21.90;11.87;;;;;;;;;;2080683;28;20164;-60
2021/10/16 03:27:28;;;;;;;20.00;11.67;;;;;;;;;;2075416;28;20239;-56
2021/10/16 03:28:29;;;;;;;16.13;11.63;;;;;;;;;;2086001;28;20247;-56
2021/10/16 03:29:29;;;;;;;21.60;11.10;;;;;;;;;;2080488;28;20275;-56
2021/10/16 03:30:30;;;;;;;23.57;12.00;;;;;;;;;;2081319;28;20341;-61
2021/10/16 03:31:30;;;;;;;15.17;10.37;;;;;;;;;;2074849;28;20173;-63
2021/10/16 03:32:30;;;;;;;15.17;9.90;;;;;;;;;;2079316;28;20283;-61
2021/10/16 03:33:30;;;;;;;19.80;10.40;;;;;;;;;;2089752;28;20180;-60
2021/10/16 03:34:31;;;;;;;21.30;11.20;;;;;;;;;;2089012;28;20323;-57
2021/10/16 03:35:33;;;;;;;20.23;11.00;;;;;;;;;;2080561;28;20188;-58
2021/10/16 03:36:33;;;;;;;18.87;10.33;;;;;;;;;;2080497;28;20233;-62
2021/10/16 03:37:34;;;;;;;16.97;10.20;;;;;;;;;;2078470;28;20270;-59
2021/10/16 03:38:35;;;;;;;21.10;10.50;;;;;;;;;;2078243;28;20184;-54
2021/10/16 03:39:35;;;;;;;18.20;9.63;;;;;;;;;;2080378;28;20195;-52
2021/10/16 03:40:35;;;;;;;17.27;10.00;;;;;;;;;;2079339;28;20188;-53
2021/10/16 03:41:38;;;;;;;12.10;9.83;;;;;;;;;;2079731;28;20191;-57
2021/10/16 03:42:38;;;;;;;15.90;9.63;;;;;;;;;;2080147;28;20192;-55
2021/10/16 03:43:47;;;;;;;12.23;9.13;;;;;;;;;;2088188;28;20266;-55
2021/10/16 03:44:47;;;;;;;17.33;10.03;;;;;;;;;;2088507;28;20171;-55
2021/10/16 03:45:48;;;;;;;15.30;8.93;;;;;;;;;;2072102;28;20201;-59
2021/10/16 03:46:51;;;;;;;13.67;9.43;;;;;;;;;;2088209;28;20188;-52
2021/10/16 03:47:53;;;;;;;14.17;8.57;;;;;;;;;;2080660;28;20173;-53
2021/10/16 03:48:55;;;;;;;15.57;8.93;;;;;;;;;;2077684;28;20231;-54
2021/10/16 03:49:58;;;;;;;19.27;9.53;;;;;;;;;;2080244;28;20180;-56
2021/10/16 03:51:00;;;;;;;14.50;8.73;;;;;;;;;;2079489;28;20704;-61
2021/10/16 03:52:03;;;;;;;15.70;9.00;;;;;;;;;;2080420;28;20254;-52
2021/10/16 03:53:05;;;;;;;15.37;8.70;;;;;;;;;;2079896;28;20180;-58
2021/10/16 03:54:05;;;;;;;14.23;8.67;;;;;;;;;;2080242;28;20636;-53
2021/10/16 03:55:06;;;;;;;14.93;7.93;;;;;;;;;;2086693;28;20640;-57
2021/10/16 03:56:07;;;;;;;13.60;7.87;;;;;;;;;;2088837;28;20218;-53
2021/10/16 03:57:08;;;;;;;12.70;7.60;;;;;;;;;;2088520;28;20200;-57
2021/10/16 03:58:08;;;;;;;14.53;8.27;;;;;;;;;;2080684;28;20256;-52
2021/10/16 03:59:10;;;;;;;13.90;8.10;;;;;;;;;;2075846;28;20184;-56
2021/10/16 04:00:19;;;;;;;9.57;7.27;;;;;;;;;;2079569;28;20172;-65
2021/10/16 04:01:25;;;;;;;14.17;7.77;;;;;;;;;;2078880;28;20171;-57
2021/10/16 04:02:26;;;;;;;15.90;8.13;;;;;;;;;;2088853;28;20176;-59
2021/10/16 04:03:27;;;;;;;14.77;8.60;;;;;;;;;;2087087;28;20192;-55
2021/10/16 04:04:27;;;;;;;11.97;8.07;;;;;;;;;;2076857;28;20252;-59
2021/10/16 04:05:27;;;;;;;15.17;9.57;;;;;;;;;;2085942;28;20166;-60
2021/10/16 04:06:28;;;;;;;13.47;8.60;;;;;;;;;;2088801;28;20247;-57
2021/10/16 04:07:29;;;;;;;12.07;8.40;;;;;;;;;;2080293;28;20168;-52
2021/10/16 04:08:30;;;;;;;18.10;8.13;;;;;;;;;;2080586;28;20168;-53
2021/10/16 04:09:30;;;;;;;11.90;8.37;;;;;;;;;;2079952;28;20180;-54
2021/10/16 04:10:30;;;;;;;10.50;8.20;;;;;;;;;;2079598;28;20173;-53
2021/10/16 04:11:31;;;;;;;11.53;7.57;;;;;;;;;;2079689;28;20862;-51
2021/10/16 04:12:31;;;;;;;13.80;8.07;;;;;;;;;;2088967;28;20175;-52
2021/10/16 04:13:31;;;;;;;15.80;7.43;;;;;;;;;;2089068;28;20647;-53
2021/10/16 04:14:32;;;;;;;11.60;8.37;;;;;;;;;;2087495;28;20211;-58
2021/10/16 04:15:32;;;;;;;13.40;8.23;;;;;;;;;;2088490;28;20229;-56
2021/10/16 04:16:32;;;;;;;14.77;8.97;;;;;;;;;;2080899;28;20648;-60
2021/10/16 04:17:33;;;;;;;18.23;10.40;;;;;;;;;;2088412;28;20186;-57
2021/10/16 04:18:33;;;;;;;14.07;9.73;;;;;;;;;;2088727;28;20563;-58
2021/10/16 04:19:34;;;;;;;14.87;9.97;;;;;;;;;;2079728;28;20176;-56
2021/10/16 04:20:34;;;;;;;15.57;9.97;;;;;;;;;;2079479;28;20187;-60
2021/10/16 04:21:34;;;;;;;15.57;10.33;;;;;;;;;;2079746;28;20226;-58
2021/10/16 04:22:37;;;;;;;21.20;11.30;;;;;;;;;;2079766;28;20182;-56
2021/10/16 04:23:37;;;;;;;19.43;10.73;;;;;;;;;;2080594;28;20203;-57
2021/10/16 04:24:38;;;;;;;13.67;9.60;;;;;;;;;;2070756;28;20336;-56
2021/10/16 04:25:38;;;;;;;14.50;9.53;;;;;;;;;;2078761;28;20180;-59
2021/10/16 04:26:39;;;;;;;15.10;10.20;;;;;;;;;;2077953;28;20172;-53
2021/10/16 04:27:40;;;;;;;18.90;10.00;;;;;;;;;;2078877;28;20555;-56
2021/10/16 04:28:55;;;;;;;11.63;8.67;;;;;;;;;;2081841;28;20267;-60
2021/10/16 04:30:14;;;;;;;13.87;9.73;;;;;;;;;;2083343;28;20215;-54
2021/10/16 04:31:14;;;;;;;15.00;9.60;;;;;;;;;;2085328;28;20168;-55
2021/10/16 04:32:15;;;;;;;15.07;9.33;;;;;;;;;;2088396;28;20191;-58
2021/10/16 04:33:15;;;;;;;11.73;9.20;;;;;;;;;;2093034;28;20532;-60
2021/10/16 04:34:15;;;;;;;13.80;9.60;;;;;;;;;;2096490;28;20183;-56
2021/10/16 04:35:16;;;;;;;12.67;9.13;;;;;;;;;;2087965;28;20172;-55
2021/10/16 04:36:16;;;;;;;16.43;8.13;;;;;;;;;;2079299;28;20183;-60
2021/10/16 04:37:16;;;;;;;17.40;8.67;;;;;;;;;;2072120;28;20219;-56
2021/10/16 04:38:17;;;;;;;14.77;8.43;;;;;;;;;;2075688;28;20180;-53
2021/10/16 04:39:17;;;;;;;12.60;8.40;;;;;;;;;;2088885;28;20295;-57
2021/10/16 04:40:21;;;;;;;11.13;8.30;;;;;;;;;;2087789;28;20666;-58
2021/10/16 04:41:21;;;;;;;12.80;8.00;;;;;;;;;;2081088;28;20164;-59
2021/10/16 04:42:22;;;;;;;10.50;7.80;;;;;;;;;;2088176;28;20592;-57
2021/10/16 04:43:22;;;;;;;17.03;7.97;;;;;;;;;;2088266;28;20203;-52
2021/10/16 04:44:23;;;;;;;13.67;8.03;;;;;;;;;;2075815;28;20165;-53
2021/10/16 04:45:24;;;;;;;14.20;8.40;;;;;;;;;;2086571;28;20160;-54
2021/10/16 04:46:28;;;;;;;12.40;7.47;;;;;;;;;;2083392;28;20176;-59
2021/10/16 04:47:35;;;;;;;17.97;8.00;;;;;;;;;;2077745;28;20168;-56
2021/10/16 04:48:39;;;;;;;9.90;6.93;;;;;;;;;;2077814;28;20172;-55
2021/10/16 04:49:40;;;;;;;13.37;7.80;;;;;;;;;;2088067;28;20182;-59
2021/10/16 04:50:44;;;;;;;12.17;8.37;;;;;;;;;;2088011;28;20176;-52
2021/10/16 04:51:44;;;;;;;16.73;9.57;;;;;;;;;;2088488;28;20299;-50
2021/10/16 04:52:51;;;;;;;15.03;9.20;;;;;;;;;;2088975;28;20169;-56
2021/10/16 04:54:04;;;;;;;17.60;9.80;;;;;;;;;;2080199;28;20188;-55
2021/10/16 04:55:05;;;;;;;13.97;9.70;;;;;;;;;;2072437;28;20559;-55
2021/10/16 04:56:06;;;;;;;13.43;9.60;;;;;;;;;;2075325;28;20194;-53
2021/10/16 04:57:07;;;;;;;12.53;9.43;;;;;;;;;;2082985;28;20200;-58
2021/10/16 04:58:07;;;;;;;14.93;10.30;;;;;;;;;;2078319;28;20180;-55
2021/10/16 04:59:14;;;;;;;13.90;11.00;;;;;;;;;;2087429;28;20163;-54
2021/10/16 05:00:15;;;;;;;15.67;10.33;;;;;;;;;;2084375;28;20286;-57
2021/10/16 05:01:17;;;;;;;19.50;11.20;;;;;;;;;;2085019;28;20164;-57
2021/10/16 05:02:19;;;;;;;12.70;10.47;;;;;;;;;;2080123;28;20160;-55
2021/10/16 05:03:22;;;;;;;16.23;11.43;;;;;;;;;;2080690;28;20267;-53
2021/10/16 05:04:23;;;;;;;14.70;10.43;;;;;;;;;;2080022;28;20263;-56
2021/10/16 05:05:27;;;;;;;14.70;11.00;;;;;;;;;;2085474;28;20207;-59
2021/10/16 05:06:32;;;;;;;15.57;11.33;;;;;;;;;;2078186;28;20641;-53
2021/10/16 05:07:32;;;;;;;17.70;11.23;;;;;;;;;;2079794;28;20238;-53
2021/10/16 05:08:35;;;;;;;17.30;10.23;;;;;;;;;;2087974;28;20223;-57
2021/10/16 05:09:36;;;;;;;15.57;10.10;;;;;;;;;;2088159;28;20246;-52
2021/10/16 05:10:36;;;;;;;14.50;11.00;;;;;;;;;;2086770;28;20201;-54
2021/10/16 05:11:38;;;;;;;19.90;11.37;;;;;;;;;;2077793;28;20262;-53
2021/10/16 05:12:39;;;;;;;13.90;9.53;;;;;;;;;;2088258;28;20228;-55
2021/10/16 05:13:39;;;;;;;10.63;9.43;;;;;;;;;;2088430;28;20667;-55
2021/10/16 05:14:40;;;;;;;13.63;9.60;;;;;;;;;;2087573;28;20179;-59
2021/10/16 05:15:40;;;;;;;14.50;8.93;;;;;;;;;;2088765;28;20184;-55
2021/10/16 05:16:45;;;;;;;12.73;9.47;;;;;;;;;;2079914;28;20192;-55
2021/10/16 05:17:46;;;;;;;12.07;9.10;;;;;;;;;;2080312;28;20171;-55
2021/10/16 05:18:52;;;;;;;12.70;7.57;;;;;;;;;;2080431;28;20169;-58
2021/10/16 05:19:52;;;;;;;13.97;7.63;;;;;;;;;;2080004;28;20239;-57
2021/10/16 05:20:53;;;;;;;15.80;8.37;;;;;;;;;;2070751;28;20165;-56
2021/10/16 05:21:57;;;;;;;12.60;8.27;;;;;;;;;;2080287;28;20691;-54
2021/10/16 05:22:57;;;;;;;14.37;8.60;;;;;;;;;;2078989;28;20183;-56
2021/10/16 05:23:58;;;;;;;14.53;8.77;;;;;;;;;;2080069;28;20176;-55
2021/10/16 05:24:58;;;;;;;13.60;8.73;;;;;;;;;;2087244;28;20200;-56
2021/10/16 05:25:59;;;;;;;16.20;8.33;;;;;;;;;;2088634;28;20171;-55
2021/10/16 05:26:59;;;;;;;13.27;8.33;;;;;;;;;;2087369;28;20206;-52
2021/10/16 05:28:00;;;;;;;11.87;8.23;;;;;;;;;;2079491;28;20180;-60
2021/10/16 05:29:01;;;;;;;13.37;8.77;;;;;;;;;;2079153;28;20179;-59
2021/10/16 05:30:01;;;;;;;13.53;8.40;;;;;;;;;;2079440;28;20648;-52
2021/10/16 05:31:06;;;;;;;13.93;7.40;;;;;;;;;;2079499;28;20184;-59
2021/10/16 05:32:07;;;;;;;9.77;7.03;;;;;;;;;;2088440;28;20176;-58
2021/10/16 05:33:07;;;;;;;15.93;7.87;;;;;;;;;;2089347;28;20289;-53
2021/10/16 05:34:07;;;;;;;10.47;7.47;;;;;;;;;;2081065;28;20963;-52
2021/10/16 05:35:08;;;;;;;12.83;7.27;;;;;;;;;;2073497;28;20395;-54
2021/10/16 05:36:08;;;;;;;9.53;7.73;;;;;;;;;;2075859;28;20202;-54
2021/10/16 05:37:09;;;;;;;13.97;7.67;;;;;;;;;;2104276;23;20234;-57
2021/10/16 05:38:11;;;;;;;8.47;7.40;;;;;;;;;;2079070;28;20184;-59
2021/10/16 05:39:11;;;;;;;11.93;7.03;;;;;;;;;;2072669;28;20675;-59
2021/10/16 05:40:17;;;;;;;12.30;7.70;;;;;;;;;;2073306;28;20222;-60
2021/10/16 05:41:17;;;;;;;14.80;7.87;;;;;;;;;;2079633;28;20630;-59
2021/10/16 05:42:20;;;;;;;11.50;7.77;;;;;;;;;;2080738;28;20267;-60
2021/10/16 05:43:21;;;;;;;10.23;7.40;;;;;;;;;;2077874;28;20201;-59
2021/10/16 05:44:25;;;;;;;9.10;7.20;;;;;;;;;;2070749;28;20169;-58
2021/10/16 05:45:26;;;;;;;12.27;7.10;;;;;;;;;;2071979;28;20342;-59
2021/10/16 05:46:26;;;;;;;16.53;7.77;;;;;;;;;;2081372;28;20173;-59
2021/10/16 05:47:28;;;;;;;11.83;7.70;;;;;;;;;;2071316;28;20275;-60
2021/10/16 05:48:30;;;;;;;11.60;7.60;;;;;;;;;;2061036;28;20837;-60
2021/10/16 05:49:30;;;;;;;7.47;6.70;;;;;;;;;;2073153;28;20168;-61
2021/10/16 05:50:31;;;;;;;17.53;7.40;;;;;;;;;;2073228;28;20188;-58
2021/10/16 05:51:34;;;;;;;10.07;7.33;;;;;;;;;;2073620;28;20637;-58
2021/10/16 05:52:35;;;;;;;12.27;7.23;;;;;;;;;;2070877;28;20184;-58
2021/10/16 05:53:36;;;;;;;12.93;7.73;;;;;;;;;;2072343;28;20275;-59
2021/10/16 05:54:36;;;;;;;14.13;8.93;;;;;;;;;;2073284;28;20177;-59
2021/10/16 05:55:37;;;;;;;11.70;8.70;;;;;;;;;;2072929;28;20271;-60
2021/10/16 05:56:37;;;;;;;12.37;9.20;;;;;;;;;;2080731;28;20176;-60
2021/10/16 05:57:37;;;;;;;13.93;8.80;;;;;;;;;;2081459;28;20254;-60
2021/10/16 05:58:38;;;;;;;22.00;9.70;;;;;;;;;;2081354;28;20180;-58
2021/10/16 05:59:39;;;;;;;14.73;9.27;;;;;;;;;;2081416;28;20180;-59
2021/10/16 06:00:39;;;;;;;10.77;8.60;;;;;;;;;;2080630;28;20679;-57
2021/10/16 06:01:40;;;;;;;14.33;9.23;;;;;;;;;;2080274;28;20176;-58
2021/10/16 06:02:40;;;;;;;14.37;9.17;;;;;;;;;;2072523;28;20228;-57
2021/10/16 06:03:41;;;;;;;16.00;8.90;;;;;;;;;;2081075;28;20196;-60